Time;durP1;ratioP1;P1;durP2;ratioP2;P2;SDS_P1;SDS_P2;PMS_P1;PMS_P2;Temp;Humidity;BMP_temperature;BMP_pressure;BME280_temperature;BME280_humidity;BME280_pressure;Samples;Min_cycle;Max_cycle;Signal;HPM_P1;HPM_P2
2021/07/24 00:02:24;;;;;;;19.73;9.90;;;16.60;99.90;;;17.81;100.00;97667.47;5038013;28;20461;-79
2021/07/24 00:04:53;;;;;;;16.73;11.00;;;16.70;99.90;;;17.86;100.00;97667.56;5047980;28;20457;-79
2021/07/24 00:07:21;;;;;;;14.07;9.60;;;16.70;99.90;;;17.74;100.00;97675.56;5044989;28;20472;-79
2021/07/24 00:09:50;;;;;;;17.40;10.40;;;16.50;99.90;;;17.70;100.00;97673.66;5048495;28;20457;-79
2021/07/24 00:12:19;;;;;;;19.60;10.47;;;16.60;99.90;;;17.75;100.00;97666.59;5046449;28;20518;-79
2021/07/24 00:14:49;;;;;;;19.90;10.10;;;16.70;99.90;;;17.76;100.00;97668.22;5047052;28;21036;-79
2021/07/24 00:17:17;;;;;;;13.97;10.27;;;16.60;99.90;;;17.73;100.00;97657.31;5050143;28;20457;-79
2021/07/24 00:19:46;;;;;;;14.10;10.40;;;16.60;99.90;;;17.70;100.00;97645.34;5045254;28;20464;-79
2021/07/24 00:22:16;;;;;;;18.00;9.97;;;16.60;99.90;;;17.59;100.00;97639.13;5048844;28;20457;-79
2021/07/24 00:24:44;;;;;;;15.50;10.60;;;16.50;99.90;;;17.45;100.00;97624.59;5040119;28;20480;-79
2021/07/24 00:27:13;;;;;;;13.17;9.57;;;16.30;99.90;;;17.55;100.00;97624.75;5048780;28;20514;-79
2021/07/24 00:29:42;;;;;;;14.17;10.37;;;16.40;99.90;;;17.57;100.00;97606.03;5045102;28;20472;-79
2021/07/24 00:32:11;;;;;;;17.50;10.43;;;16.40;99.90;;;17.65;100.00;97602.19;5042569;28;20550;-79
2021/07/24 00:34:40;;;;;;;15.60;10.27;;;16.50;99.90;;;17.62;100.00;97592.09;5048764;28;20479;-79
2021/07/24 00:37:08;;;;;;;15.17;10.30;;;16.60;99.90;;;17.65;100.00;97581.81;5050411;28;20461;-79
2021/07/24 00:39:37;;;;;;;15.43;10.37;;;16.50;99.90;;;17.49;100.00;97575.47;5049955;28;20469;-79
2021/07/24 00:42:18;;;;;;;14.50;10.80;;;16.30;99.90;;;17.50;100.00;97579.72;5052852;28;20504;-78
2021/07/24 00:44:49;;;;;;;16.10;10.10;;;16.40;99.90;;;17.46;100.00;97580.44;5049746;28;20539;-79
2021/07/24 00:47:20;;;;;;;15.83;10.30;;;16.40;99.90;;;17.57;100.00;97584.88;5043810;28;20518;-79
2021/07/24 00:49:51;;;;;;;16.47;10.30;;;16.50;99.90;;;17.44;100.00;97585.19;5046699;28;20472;-79
2021/07/24 00:52:19;;;;;;;17.30;11.70;;;16.30;99.90;;;17.40;100.00;97592.78;5047170;28;20497;-79
2021/07/24 00:54:48;;;;;;;15.43;9.47;;;16.20;99.90;;;17.40;100.00;97594.63;5045334;28;20522;-79
2021/07/24 00:57:16;;;;;;;15.80;10.33;;;16.30;99.90;;;17.46;100.00;97593.66;5045054;28;20457;-79
2021/07/24 00:59:45;;;;;;;14.07;10.00;;;16.40;99.90;;;17.39;100.00;97604.41;5047696;28;20519;-78
2021/07/24 01:02:14;;;;;;;13.87;9.80;;;16.20;99.90;;;17.40;100.00;97610.50;5047044;28;20933;-79
2021/07/24 01:04:44;;;;;;;14.03;10.30;;;16.20;99.90;;;17.29;100.00;97601.59;5046479;28;20465;-79
2021/07/24 01:07:13;;;;;;;16.03;10.00;;;16.10;99.90;;;17.12;100.00;97598.16;5052978;28;20457;-78
2021/07/24 01:09:41;;;;;;;15.87;11.20;;;15.90;99.90;;;17.19;100.00;97598.00;5043422;28;20465;-79
2021/07/24 01:12:10;;;;;;;14.40;9.93;;;16.00;99.90;;;17.24;100.00;97598.91;5044367;28;20496;-78
2021/07/24 01:14:39;;;;;;;19.00;10.27;;;16.10;99.90;;;17.27;100.00;97593.13;5045187;28;20535;-79
2021/07/24 01:17:07;;;;;;;15.40;10.53;;;16.10;99.90;;;17.16;100.00;97585.25;5049413;28;20449;-79
2021/07/24 01:19:36;;;;;;;17.67;10.87;;;16.00;99.90;;;17.07;100.00;97584.88;5047236;28;20461;-79
2021/07/24 01:22:06;;;;;;;15.10;10.83;;;15.90;99.90;;;16.93;100.00;97578.31;5049677;28;20455;-79
2021/07/24 01:24:35;;;;;;;19.33;11.77;;;15.80;99.90;;;17.11;100.00;97564.88;5046565;28;20889;-79
2021/07/24 01:27:08;;;;;;;14.93;9.53;;;16.00;99.90;;;17.20;100.00;97552.03;5047719;28;20457;-78
2021/07/24 01:29:37;;;;;;;17.53;11.13;;;16.10;99.90;;;17.09;100.00;97553.72;5048906;28;20469;-79
2021/07/24 01:32:07;;;;;;;16.77;10.70;;;15.90;99.90;;;17.19;100.00;97545.94;5042765;28;20546;-79
2021/07/24 01:34:36;;;;;;;18.13;10.13;;;16.10;99.90;;;17.15;100.00;97544.81;5046920;28;20484;-79
2021/07/24 01:37:06;;;;;;;17.60;10.47;;;16.00;99.90;;;17.22;100.00;97542.81;5047651;28;20468;-78
2021/07/24 01:39:34;;;;;;;14.07;10.43;;;16.10;99.90;;;17.19;100.00;97538.03;5046806;28;21025;-79
2021/07/24 01:42:03;;;;;;;14.20;10.50;;;16.10;99.90;;;17.07;100.00;97532.84;5045972;28;20465;-79
2021/07/24 01:44:32;;;;;;;14.73;10.47;;;16.10;99.90;;;17.02;100.00;97530.09;5042177;28;20442;-79
2021/07/24 01:47:01;;;;;;;17.93;9.70;;;16.00;99.90;;;17.11;100.00;97526.00;5045323;28;20521;-78
2021/07/24 01:55:23;;;;;;;15.70;9.83;;;16.10;99.90;;;17.22;100.00;97516.41;5044552;28;20503;-79
2021/07/24 01:57:54;;;;;;;13.80;9.70;;;16.10;99.90;;;17.10;100.00;97516.50;5046163;28;20538;-79
2021/07/24 02:00:23;;;;;;;14.53;10.20;;;16.00;99.90;;;17.08;100.00;97507.19;5042431;28;20542;-78
2021/07/24 02:02:56;;;;;;;14.43;9.80;;;15.90;99.90;;;16.94;100.00;97492.72;5042836;28;20472;-79
2021/07/24 02:05:41;;;;;;;18.23;10.87;;;15.80;99.90;;;16.98;100.00;97491.19;5044195;28;20465;-79
2021/07/24 02:08:16;;;;;;;16.97;10.17;;;15.90;99.90;;;16.97;100.00;97494.91;5042196;28;20495;-79
2021/07/24 02:10:45;;;;;;;19.03;10.93;;;15.90;99.90;;;16.83;100.00;97501.53;5046794;28;20530;-78
2021/07/24 02:13:14;;;;;;;15.00;10.33;;;15.80;99.90;;;16.85;100.00;97507.38;5045518;28;20962;-79
2021/07/24 02:15:43;;;;;;;14.70;10.43;;;15.80;99.90;;;16.89;100.00;97511.13;5042867;28;20544;-79
2021/07/24 02:18:15;;;;;;;15.37;10.63;;;15.80;99.90;;;16.81;100.00;97522.09;5043583;28;20461;-79
2021/07/24 02:20:47;;;;;;;14.60;9.80;;;15.70;99.90;;;16.91;100.00;97512.50;5044208;28;20887;-78
2021/07/24 02:23:19;;;;;;;17.43;10.20;;;15.90;99.90;;;17.00;100.00;97512.91;5042256;28;20469;-79
2021/07/24 02:25:48;;;;;;;17.33;10.60;;;15.90;99.90;;;16.86;100.00;97515.06;5044105;28;20469;-79
2021/07/24 02:28:16;;;;;;;17.90;10.83;;;15.70;99.90;;;16.86;100.00;97509.78;5042316;28;20473;-79
2021/07/24 02:30:45;;;;;;;13.70;9.93;;;15.80;99.90;;;16.77;100.00;97515.69;5043805;28;20648;-79
2021/07/24 02:33:13;;;;;;;17.37;10.57;;;15.60;99.90;;;16.87;100.00;97519.28;5044664;28;21041;-79
2021/07/24 02:35:42;;;;;;;16.37;10.70;;;15.80;99.90;;;16.94;100.00;97513.84;5041879;28;21049;-79
2021/07/24 02:38:10;;;;;;;18.43;11.03;;;15.90;99.90;;;17.01;100.00;97520.56;5043289;28;20469;-79
2021/07/24 02:40:40;;;;;;;15.80;10.10;;;16.00;99.90;;;17.07;100.00;97517.00;5046396;28;20445;-79
2021/07/24 02:43:09;;;;;;;13.07;9.77;;;16.10;99.90;;;17.10;100.00;97527.06;5046441;28;21005;-79
2021/07/24 02:45:37;;;;;;;19.63;10.23;;;16.10;99.90;;;16.99;100.00;97524.50;5043170;28;20456;-79
2021/07/24 02:48:06;;;;;;;14.33;10.13;;;15.90;99.90;;;17.02;100.00;97531.94;5046446;28;21057;-79
2021/07/24 02:50:35;;;;;;;13.33;9.87;;;16.10;99.90;;;17.08;100.00;97539.69;5048767;28;20445;-79
2021/07/24 02:53:04;;;;;;;21.73;9.53;;;16.10;99.90;;;17.03;100.00;97546.75;5042273;28;20547;-78
2021/07/24 02:55:32;;;;;;;13.53;10.17;;;16.00;99.90;;;17.09;100.00;97540.50;5048234;28;20478;-78
2021/07/24 02:58:02;;;;;;;16.77;10.90;;;16.10;99.90;;;16.98;100.00;97549.31;5041920;28;20489;-79
2021/07/24 03:00:31;;;;;;;16.23;10.30;;;16.00;99.90;;;16.99;100.00;97556.19;5046281;28;20456;-79
2021/07/24 03:03:00;;;;;;;14.47;10.33;;;15.90;99.90;;;17.06;100.00;97552.38;5045581;28;20488;-79
2021/07/24 03:05:28;;;;;;;14.50;10.80;;;16.00;99.90;;;17.04;100.00;97558.94;5044401;28;20552;-79
2021/07/24 03:07:56;;;;;;;17.10;10.20;;;15.90;99.90;;;17.11;100.00;97556.94;5046040;28;20468;-79
2021/07/24 03:10:25;;;;;;;15.30;10.70;;;16.10;99.90;;;17.09;100.00;97564.28;5046691;28;20465;-79
2021/07/24 03:12:53;;;;;;;21.80;10.60;;;16.10;99.90;;;17.04;100.00;97564.22;5044886;28;20654;-79
2021/07/24 03:15:23;;;;;;;17.73;11.13;;;16.00;99.90;;;17.12;100.00;97571.72;5052010;28;20494;-79
2021/07/24 03:17:51;;;;;;;14.97;11.03;;;16.10;99.90;;;16.90;100.00;97595.41;5053255;28;20514;-79
2021/07/24 03:20:20;;;;;;;15.70;10.50;;;15.80;99.90;;;17.06;100.00;97585.91;5036714;28;20469;-79
2021/07/24 03:22:48;;;;;;;14.50;10.87;;;16.10;99.90;;;17.15;100.00;97584.47;5044022;28;20492;-79
2021/07/24 03:25:20;;;;;;;18.20;11.27;;;16.20;99.90;;;16.94;100.00;97616.88;5048279;28;20659;-79
2021/07/24 03:27:48;;;;;;;13.63;10.07;;;16.00;99.90;;;17.01;100.00;97659.78;5047535;28;20461;-79
2021/07/24 03:30:17;;;;;;;16.17;10.60;;;16.00;99.90;;;17.14;100.00;97661.34;5048232;28;20538;-79
2021/07/24 03:32:47;;;;;;;14.10;10.63;;;16.20;99.90;;;17.16;100.00;97638.91;5047674;28;20480;-79
2021/07/24 03:35:15;;;;;;;15.93;9.90;;;16.20;99.90;;;17.26;100.00;97631.16;5041268;28;20453;-79
2021/07/24 03:37:44;;;;;;;15.30;9.73;;;16.30;99.90;;;17.26;100.00;97635.63;5047754;28;21009;-79
2021/07/24 03:40:13;;;;;;;22.00;10.40;;;16.30;99.90;;;17.15;100.00;97631.25;5047741;28;20453;-78
2021/07/24 03:42:42;;;;;;;25.20;13.40;;;16.10;99.90;;;17.19;100.00;97640.28;5047913;28;20457;-78
2021/07/24 03:45:11;;;;;;;14.63;10.70;;;16.20;99.90;;;17.19;100.00;97627.06;5049938;28;21177;-79
2021/07/24 03:47:39;;;;;;;18.00;11.47;;;16.30;99.90;;;17.27;100.00;97616.09;5052950;28;21048;-79
2021/07/24 03:50:10;;;;;;;17.30;10.90;;;16.30;99.90;;;17.29;100.00;97620.09;5049240;28;20461;-78
2021/07/24 03:52:39;;;;;;;20.07;11.97;;;16.40;99.90;;;17.27;100.00;97606.34;5049336;28;20550;-79
2021/07/24 03:55:09;;;;;;;13.63;10.20;;;16.30;99.90;;;17.39;100.00;97600.97;5046338;28;20501;-79
2021/07/24 03:57:38;;;;;;;15.93;9.73;;;16.40;99.90;;;17.40;100.00;97616.59;5045026;28;20445;-78
2021/07/24 04:00:08;;;;;;;13.20;9.53;;;16.30;99.90;;;17.41;100.00;97617.41;5049011;28;20441;-78
2021/07/24 04:02:38;;;;;;;13.73;10.40;;;16.40;99.90;;;17.44;100.00;97596.56;5051425;28;21014;-78
2021/07/24 04:05:10;;;;;;;14.27;10.87;;;16.60;99.90;;;17.46;100.00;97567.22;5045014;28;20456;-78
2021/07/24 04:07:41;;;;;;;15.13;9.87;;;16.70;99.90;;;17.52;100.00;97576.84;5044818;28;20445;-79
2021/07/24 04:10:12;;;;;;;34.73;10.80;;;16.60;99.90;;;17.44;100.00;97558.75;5049654;28;20522;-78
2021/07/24 04:12:41;;;;;;;16.07;11.63;;;16.50;99.90;;;17.49;100.00;97535.81;5049655;28;20550;-81
2021/07/24 04:15:11;;;;;;;15.03;10.47;;;16.50;99.90;;;17.43;100.00;97544.72;5050434;28;20545;-78
2021/07/24 04:17:40;;;;;;;18.20;11.70;;;16.40;99.90;;;17.49;100.00;97535.03;5046705;28;20530;-78
2021/07/24 04:20:12;;;;;;;14.43;10.20;;;16.50;99.90;;;17.54;100.00;97520.03;5052139;28;20441;-78
2021/07/24 04:22:44;;;;;;;14.07;10.00;;;16.60;99.90;;;17.58;100.00;97507.16;5047206;28;21001;-79
2021/07/24 04:25:13;;;;;;;17.87;10.00;;;16.60;99.90;;;17.54;100.00;97511.28;5052632;28;20479;-78
2021/07/24 04:27:42;;;;;;;15.07;11.60;;;16.60;99.90;;;17.52;100.00;97505.47;5051925;28;20522;-81
2021/07/24 04:30:11;;;;;;;15.50;10.97;;;16.70;99.90;;;17.54;100.00;97492.78;5052768;28;20515;-79
2021/07/24 04:32:40;;;;;;;15.20;10.67;;;16.60;99.90;;;17.34;100.00;97477.47;5051993;28;20532;-79
2021/07/24 04:35:10;;;;;;;38.17;12.00;;;16.40;99.90;;;17.36;100.00;97472.72;5052435;28;20453;-78
2021/07/24 04:37:39;;;;;;;19.60;11.30;;;16.50;99.90;;;17.45;100.00;97479.22;5044396;28;20477;-80
2021/07/24 04:40:09;;;;;;;23.13;11.67;;;16.70;99.90;;;17.48;100.00;97499.88;5054082;28;20467;-79
2021/07/24 04:42:39;;;;;;;18.63;11.53;;;16.70;99.90;;;17.51;100.00;97509.16;5053961;28;20457;-80
2021/07/24 04:45:10;;;;;;;15.20;10.53;;;16.70;99.90;;;17.57;100.00;97511.63;5053808;28;20449;-79
2021/07/24 04:47:39;;;;;;;20.17;12.33;;;16.80;99.90;;;17.62;100.00;97499.53;5051716;28;20477;-79
2021/07/24 04:50:10;;;;;;;19.47;12.13;;;16.90;99.90;;;17.67;100.00;97496.97;5052948;28;20453;-79
2021/07/24 04:52:39;;;;;;;24.73;12.10;;;16.80;99.90;;;17.73;100.00;97494.13;5049539;28;21017;-80
2021/07/24 04:55:09;;;;;;;18.93;12.43;;;16.80;99.90;;;17.77;100.00;97497.09;5051707;28;20853;-79
2021/07/24 04:57:38;;;;;;;19.63;12.70;;;16.90;99.90;;;17.77;100.00;97484.63;5052100;28;20449;-80
2021/07/24 05:00:11;;;;;;;17.63;11.27;;;16.80;99.90;;;17.83;100.00;97477.59;5051503;28;20449;-79
2021/07/24 05:02:40;;;;;;;19.33;11.20;;;16.90;99.90;;;17.85;100.00;97489.50;5043711;28;20488;-80
2021/07/24 05:05:11;;;;;;;15.33;11.23;;;16.90;99.90;;;17.80;100.00;97491.31;5052286;28;20527;-80
2021/07/24 05:07:41;;;;;;;17.67;12.33;;;16.80;99.90;;;17.71;100.00;97498.84;5053035;28;20476;-79
2021/07/24 05:10:11;;;;;;;14.67;10.17;;;16.70;99.90;;;17.71;100.00;97503.34;5052577;28;20456;-79
2021/07/24 05:12:40;;;;;;;15.23;10.23;;;16.70;99.90;;;17.65;100.00;97501.69;5049828;28;20514;-79
2021/07/24 05:15:09;;;;;;;15.67;10.83;;;16.60;99.90;;;17.75;100.00;97493.88;5051095;28;20950;-79
2021/07/24 05:17:41;;;;;;;19.13;12.33;;;16.70;99.90;;;17.81;100.00;97500.81;5050527;28;20462;-79
2021/07/24 05:20:11;;;;;;;17.83;12.77;;;16.80;99.90;;;17.87;100.00;97491.91;5050926;28;20449;-79
2021/07/24 05:22:40;;;;;;;15.63;11.60;;;16.80;99.90;;;17.92;100.00;97486.66;5050896;28;20503;-79
2021/07/24 05:25:10;;;;;;;17.20;12.03;;;16.90;99.90;;;17.97;100.00;97486.75;5043554;28;20457;-79
2021/07/24 05:27:39;;;;;;;17.47;11.20;;;17.00;99.90;;;18.05;100.00;97488.94;5049957;28;20546;-79
2021/07/24 05:30:09;;;;;;;15.80;11.40;;;17.10;99.90;;;18.09;100.00;97492.69;5050691;28;20511;-79
2021/07/24 05:32:37;;;;;;;17.73;11.23;;;17.10;99.90;;;18.13;100.00;97499.09;5050448;28;21068;-80
2021/07/24 05:35:07;;;;;;;14.03;11.03;;;17.20;99.90;;;18.15;100.00;97504.13;5051008;28;20453;-79
2021/07/24 05:37:37;;;;;;;20.40;11.47;;;17.30;99.90;;;18.17;100.00;97500.19;5050028;28;20503;-79
2021/07/24 05:40:07;;;;;;;17.63;11.50;;;17.30;99.90;;;18.18;100.00;97495.69;5050999;28;20445;-79
2021/07/24 05:42:36;;;;;;;15.10;10.73;;;17.30;99.90;;;18.20;100.00;97489.09;5051032;28;20761;-79
2021/07/24 05:45:06;;;;;;;15.30;11.30;;;17.30;99.90;;;18.17;100.00;97488.78;5050563;28;20449;-78
2021/07/24 05:48:25;;;;;;;17.33;10.70;;;17.30;99.90;;;18.07;100.00;97495.59;5104933;27;20570;-81
2021/07/24 05:50:54;;;;;;;15.43;11.13;;;17.10;99.90;;;18.13;100.00;97496.44;5085573;28;20452;-81
2021/07/24 05:53:22;;;;;;;15.90;10.90;;;17.10;99.90;;;18.19;100.00;97497.31;5086326;28;20447;-81
2021/07/24 05:55:51;;;;;;;15.47;10.73;;;17.20;99.90;;;18.23;100.00;97501.03;5094200;28;20446;-81
2021/07/24 05:58:19;;;;;;;19.13;11.37;;;17.30;99.90;;;18.15;100.00;97506.78;5086885;28;20460;-81
2021/07/24 06:00:48;;;;;;;14.77;10.53;;;17.20;99.90;;;18.14;100.00;97511.28;5087700;28;20447;-81
2021/07/24 06:03:17;;;;;;;16.10;10.60;;;17.10;99.90;;;18.17;100.00;97518.72;5085935;28;20458;-81
2021/07/24 06:05:46;;;;;;;16.53;10.23;;;17.20;99.90;;;18.20;100.00;97517.41;5083667;28;20443;-81
2021/07/24 06:08:15;;;;;;;21.80;11.60;;;17.20;99.90;;;18.14;100.00;97521.06;5091750;28;21023;-81
2021/07/24 06:10:43;;;;;;;14.93;11.57;;;17.10;99.90;;;18.17;100.00;97513.41;5091020;28;20447;-81
2021/07/24 06:13:12;;;;;;;15.90;11.00;;;17.20;99.90;;;18.11;100.00;97527.66;5081813;28;20505;-81
2021/07/24 06:15:43;;;;;;;19.60;11.80;;;17.20;99.90;;;18.16;100.00;97524.25;5086573;28;20505;-81
2021/07/24 06:18:12;;;;;;;14.97;10.80;;;17.20;99.90;;;18.22;100.00;97534.66;5094910;28;20447;-81
2021/07/24 06:20:40;;;;;;;16.27;11.70;;;17.30;99.90;;;18.21;100.00;97538.34;5086957;28;20891;-81
2021/07/24 06:23:10;;;;;;;15.70;11.90;;;17.30;99.90;;;18.17;100.00;97541.72;5086563;28;20517;-81
2021/07/24 06:25:39;;;;;;;18.30;10.93;;;17.20;99.90;;;18.25;100.00;97550.06;5086473;28;20497;-82
2021/07/24 06:28:07;;;;;;;23.60;13.10;;;17.30;99.90;;;18.29;100.00;97545.84;5090893;28;20498;-81
2021/07/24 06:30:36;;;;;;;23.20;10.90;;;17.30;99.90;;;18.35;100.00;97544.88;5085205;28;20517;-81
2021/07/24 06:33:05;;;;;;;15.93;11.70;;;17.40;99.90;;;18.39;100.00;97540.69;5086309;28;20444;-81
2021/07/24 06:35:34;;;;;;;17.80;11.80;;;17.50;99.90;;;18.41;100.00;97546.50;5084735;28;20451;-81
2021/07/24 06:38:03;;;;;;;17.67;11.90;;;17.50;99.90;;;18.43;100.00;97549.69;5084798;28;20936;-81
2021/07/24 06:40:33;;;;;;;17.73;11.63;;;17.60;99.90;;;18.44;100.00;97546.00;5081397;28;20520;-82
2021/07/24 06:43:01;;;;;;;14.90;11.70;;;17.70;99.90;;;18.46;100.00;97538.63;5079243;28;20893;-81
2021/07/24 06:45:30;;;;;;;15.47;10.90;;;17.70;99.90;;;18.50;100.00;97542.38;5085813;28;20436;-81
2021/07/24 06:47:58;;;;;;;14.93;10.90;;;17.70;99.90;;;18.51;100.00;97535.25;5083205;28;21460;-81
2021/07/24 06:50:27;;;;;;;17.80;10.93;;;17.80;99.90;;;18.52;100.00;97529.72;5087387;28;20447;-81
2021/07/24 06:52:59;;;;;;;15.40;11.03;;;17.70;99.90;;;18.57;100.00;97529.75;5079306;28;20444;-81
2021/07/24 06:55:28;;;;;;;16.50;11.53;;;17.70;99.90;;;18.65;100.00;97538.28;5076099;28;20456;-81
2021/07/24 06:58:02;;;;;;;16.60;11.10;;;17.70;99.90;;;18.72;100.00;97538.88;5082076;28;20502;-81
2021/07/24 07:00:31;;;;;;;19.83;11.73;;;17.80;99.90;;;18.77;100.00;97531.78;5071914;28;20916;-81
2021/07/24 07:03:00;;;;;;;16.90;11.80;;;18.00;99.90;;;18.77;100.00;97520.41;5069493;28;20486;-81
2021/07/24 07:05:30;;;;;;;23.53;11.80;;;18.00;99.90;;;18.84;100.00;97515.69;5067066;28;20452;-81
2021/07/24 07:07:59;;;;;;;17.53;11.63;;;18.10;99.90;;;18.87;100.00;97496.63;5071853;28;20503;-81
2021/07/24 07:10:27;;;;;;;14.20;11.23;;;18.10;99.90;;;18.87;100.00;97508.03;5069843;28;20444;-81
2021/07/24 07:12:59;;;;;;;16.40;10.70;;;18.10;99.90;;;18.78;100.00;97516.72;5072897;28;20451;-81
2021/07/24 07:15:28;;;;;;;16.33;11.53;;;17.90;99.90;;;18.80;100.00;97518.03;5074369;28;20448;-81
2021/07/24 07:18:00;;;;;;;15.87;11.33;;;18.00;99.90;;;18.90;100.00;97509.38;5076936;28;20475;-81
2021/07/24 07:20:33;;;;;;;25.23;12.37;;;18.00;99.90;;;18.97;100.00;97509.97;5077306;28;20475;-81
2021/07/24 07:23:01;;;;;;;33.03;11.77;;;18.00;99.90;;;18.99;100.00;97508.66;5070541;28;20476;-81
2021/07/24 07:25:30;;;;;;;20.63;12.13;;;18.10;99.90;;;19.08;100.00;97516.94;5068815;28;20945;-81
2021/07/24 07:27:59;;;;;;;16.00;12.00;;;18.20;99.90;;;19.14;100.00;97505.31;5068557;28;20835;-82
2021/07/24 07:30:28;;;;;;;17.30;11.47;;;18.40;99.90;;;19.16;100.00;97511.16;5071703;28;20936;-81
2021/07/24 07:32:57;;;;;;;22.93;11.53;;;18.40;99.90;;;19.23;100.00;97495.03;5071213;28;20454;-81
2021/07/24 07:35:25;;;;;;;21.83;11.70;;;18.50;99.90;;;19.27;100.00;97496.91;5071936;28;20448;-80
2021/07/24 07:37:54;;;;;;;17.30;11.73;;;18.60;99.90;;;19.30;100.00;97492.97;5071951;28;20452;-81
2021/07/24 07:40:23;;;;;;;14.70;11.33;;;18.50;99.90;;;19.34;100.00;97489.53;5067706;28;20460;-81
2021/07/24 07:42:52;;;;;;;13.47;10.37;;;18.50;99.90;;;19.35;100.00;97503.59;5067118;28;20452;-81
2021/07/24 07:45:22;;;;;;;21.20;10.67;;;18.50;99.90;;;19.33;100.00;97508.38;5067307;28;20468;-81
2021/07/24 07:47:51;;;;;;;16.80;11.50;;;18.50;99.90;;;19.40;100.00;97499.09;5067309;28;20514;-81
2021/07/24 07:50:20;;;;;;;15.17;10.20;;;18.50;99.90;;;19.45;100.00;97501.81;5070115;28;20460;-81
2021/07/24 07:52:48;;;;;;;17.90;11.97;;;18.50;99.90;;;19.49;100.00;97494.16;5063947;28;20446;-81
2021/07/24 07:55:17;;;;;;;17.10;11.30;;;18.70;99.90;;;19.47;100.00;97499.72;5072183;28;20502;-81
2021/07/24 07:57:46;;;;;;;15.40;11.20;;;18.60;99.90;;;19.48;100.00;97503.16;5071498;28;20510;-82
2021/07/24 08:00:16;;;;;;;16.00;11.07;;;18.50;99.90;;;19.48;100.00;97484.59;5060871;28;20875;-81
2021/07/24 08:02:52;;;;;;;15.40;12.10;;;18.60;99.90;;;19.47;100.00;97490.97;5067193;28;20925;-82
2021/07/24 08:05:21;;;;;;;15.60;11.50;;;18.50;99.90;;;19.42;100.00;97499.69;5066265;28;20760;-81
2021/07/24 08:07:50;;;;;;;18.20;11.80;;;18.50;99.90;;;19.42;100.00;97489.09;5069171;28;20830;-81
2021/07/24 08:10:20;;;;;;;19.23;12.33;;;18.50;99.90;;;19.48;100.00;97484.59;5077359;28;20443;-81
2021/07/24 08:12:50;;;;;;;15.60;11.00;;;18.60;99.90;;;19.46;100.00;97489.38;5070143;28;20874;-81
2021/07/24 08:15:25;;;;;;;18.10;11.10;;;18.60;99.90;;;19.39;100.00;97481.63;5062224;28;20817;-81
2021/07/24 08:17:57;;;;;;;16.73;11.83;;;18.50;99.90;;;19.45;100.00;97480.63;5076372;28;20959;-81
2021/07/24 08:20:27;;;;;;;22.97;11.50;;;18.50;99.90;;;19.40;100.00;97477.88;5069165;28;20452;-81
2021/07/24 08:22:55;;;;;;;22.00;12.00;;;18.50;99.90;;;19.37;100.00;97482.91;5075153;28;21094;-81
2021/07/24 08:25:24;;;;;;;18.63;11.67;;;18.40;99.90;;;19.32;100.00;97474.94;5069704;28;20847;-80
2021/07/24 08:27:53;;;;;;;18.70;12.10;;;18.40;99.90;;;19.30;100.00;97467.22;5068978;28;20534;-81
2021/07/24 08:30:21;;;;;;;23.00;13.57;;;18.40;99.90;;;19.29;100.00;97468.31;5066819;28;20940;-81
2021/07/24 08:32:50;;;;;;;20.97;13.13;;;18.30;99.90;;;19.26;100.00;97468.81;5068407;28;20456;-81
2021/07/24 08:35:20;;;;;;;22.20;12.90;;;18.40;99.90;;;19.16;100.00;97466.06;5066792;28;20459;-81
2021/07/24 08:37:48;;;;;;;17.73;12.97;;;18.30;99.90;;;19.17;100.00;97465.03;5068420;28;20448;-81
2021/07/24 08:40:18;;;;;;;19.60;13.40;;;18.30;99.90;;;19.20;100.00;97467.16;5066522;28;20485;-81
2021/07/24 08:42:46;;;;;;;22.67;13.67;;;18.20;99.90;;;19.28;100.00;97479.16;5067607;28;20447;-81
2021/07/24 08:45:17;;;;;;;21.90;13.40;;;18.30;99.90;;;19.32;100.00;97481.03;5067007;28;20501;-81
2021/07/24 08:47:46;;;;;;;21.60;13.47;;;18.40;99.90;;;19.39;100.00;97471.00;5065064;28;20491;-81
2021/07/24 08:50:15;;;;;;;20.73;13.87;;;18.50;99.90;;;19.47;100.00;97467.88;5067837;28;20509;-81
2021/07/24 08:52:54;;;;;;;22.70;13.70;;;18.60;99.90;;;19.58;100.00;97469.53;5069991;28;20448;-81
2021/07/24 08:55:24;;;;;;;24.50;13.97;;;18.60;99.90;;;19.61;100.00;97468.22;5069494;28;20460;-81
2021/07/24 08:57:56;;;;;;;18.47;13.13;;;18.70;99.90;;;19.64;100.00;97464.25;5070063;28;20497;-81
2021/07/24 09:00:27;;;;;;;20.90;13.07;;;18.70;99.90;;;19.69;100.00;97464.25;5063903;28;20448;-81
2021/07/24 09:03:02;;;;;;;26.47;15.73;;;18.70;99.90;;;19.72;100.00;97469.84;5066603;28;20449;-81
2021/07/24 09:05:33;;;;;;;20.60;14.23;;;18.80;99.90;;;19.73;100.00;97478.63;5072638;28;20462;-81
2021/07/24 09:08:11;;;;;;;17.73;13.60;;;18.80;99.90;;;19.67;100.00;97472.50;5070704;28;20545;-81
2021/07/24 09:10:45;;;;;;;21.43;14.07;;;18.70;99.90;;;19.70;100.00;97476.47;5069083;28;20517;-81
2021/07/24 09:13:18;;;;;;;23.07;14.60;;;18.70;99.90;;;19.74;100.00;97482.88;5068685;28;20507;-81
2021/07/24 09:15:48;;;;;;;18.50;13.17;;;18.90;99.90;;;19.80;100.00;97479.16;5068439;28;20963;-81
2021/07/24 09:18:16;;;;;;;25.93;13.60;;;18.90;99.90;;;19.82;100.00;97485.81;5067841;28;21019;-81
2021/07/24 09:20:48;;;;;;;24.10;13.03;;;18.90;99.90;;;19.86;100.00;97488.75;5066895;28;20448;-81
2021/07/24 09:23:28;;;;;;;25.90;13.13;;;19.00;99.90;;;19.88;100.00;97494.59;5072389;28;20475;-81
2021/07/24 09:25:57;;;;;;;17.30;11.97;;;19.00;99.90;;;19.90;100.00;97492.47;5068926;28;20444;-81
2021/07/24 09:28:28;;;;;;;22.03;13.07;;;19.00;99.90;;;19.88;100.00;97502.56;5067506;28;20978;-81
2021/07/24 09:30:57;;;;;;;19.83;12.40;;;18.90;99.90;;;19.91;100.00;97507.34;5066224;28;20995;-81
2021/07/24 09:33:25;;;;;;;17.37;11.90;;;18.90;99.90;;;19.96;100.00;97513.47;5068116;28;20460;-81
2021/07/24 09:36:01;;;;;;;17.90;11.70;;;19.00;99.90;;;20.03;100.00;97524.66;5065989;28;20535;-81
2021/07/24 09:38:33;;;;;;;16.33;11.80;;;19.00;99.90;;;20.06;100.00;97523.34;5070078;28;20448;-81
2021/07/24 09:41:05;;;;;;;22.43;13.20;;;19.10;99.90;;;20.06;100.00;97523.34;5066285;28;20952;-81
2021/07/24 09:43:36;;;;;;;23.60;14.17;;;19.20;99.90;;;20.06;100.00;97526.00;5057419;28;20452;-81
2021/07/24 09:46:13;;;;;;;18.50;12.10;;;19.20;99.90;;;20.03;100.00;97537.91;5072610;28;20488;-81
2021/07/24 09:48:44;;;;;;;15.43;11.47;;;19.20;99.90;;;20.00;100.00;97541.09;5065958;28;20495;-82
2021/07/24 09:51:14;;;;;;;20.07;11.93;;;19.10;99.90;;;20.06;100.00;97542.72;5070644;28;20450;-81
2021/07/24 09:53:45;;;;;;;19.03;11.40;;;19.20;99.90;;;20.04;100.00;97541.38;5070420;28;20820;-82
2021/07/24 09:56:15;;;;;;;25.93;12.10;;;19.10;99.90;;;20.03;100.00;97534.47;5070475;28;20447;-82
2021/07/24 09:58:44;;;;;;;22.30;12.70;;;19.10;99.90;;;20.05;100.00;97527.84;5067802;28;20437;-82
2021/07/24 10:01:18;;;;;;;19.63;11.03;;;19.10;99.90;;;20.09;100.00;97544.06;5064841;28;20506;-82
2021/07/24 10:03:50;;;;;;;16.47;10.60;;;19.20;99.90;;;20.07;100.00;97546.16;5067583;28;20454;-82
2021/07/24 10:06:20;;;;;;;14.30;10.27;;;19.20;99.90;;;20.04;100.00;97536.06;5069947;28;20448;-82
2021/07/24 10:08:59;;;;;;;20.40;10.03;;;19.20;99.90;;;20.02;100.00;97544.31;5074211;28;20483;-82
2021/07/24 10:11:34;;;;;;;11.90;6.60;;;19.10;99.90;;;20.01;100.00;97541.91;5067224;28;20498;-82
2021/07/24 10:14:06;;;;;;;13.83;7.27;;;19.10;99.90;;;20.02;100.00;97544.31;5069397;28;20448;-82
2021/07/24 10:16:35;;;;;;;10.30;6.40;;;19.20;99.90;;;20.05;100.00;97540.31;5067873;28;20474;-82
2021/07/24 10:19:04;;;;;;;13.83;6.87;;;19.20;99.90;;;20.10;100.00;97541.13;5064066;28;20452;-82